Mount Vernon, Indiana
Current Conditions -  °F | °C
As of 2:15 PM on Sunday 25 Jan 2015 (Local Time) from KEHR Reporting Station
Overcast Overcast  
Wind Chill: 37°   Ceiling: 1000
Heat Index: 43°   Visibility: 10mi
Dew Point: 37°   Wind: 10mph
Humidity: 81%   Direction: 170°S
Pressure: 29.59"   Gusts: NA
Location:  37.93°N, 87.9°W
Report Text: KEHR 252015Z AUTO 17009KT 10SM BKN010 BKN016 OVC027 06/03 A2959 RMK AO1 P0005
Loading
Personal Weather Stations






























Interactive Weather Map New forecast layout! Learn more

10-Day Weather Forecast

Advertisements
Track Severe Weather on mobile